createdAt,value
2023-04-08T00:02:32.594Z,17.20
2023-04-08T00:07:37.663Z,16.60
2023-04-08T00:12:41.861Z,14.00
2023-04-08T00:17:46.109Z,22.50
2023-04-08T00:22:50.647Z,16.90
2023-04-08T00:27:54.779Z,16.10
2023-04-08T00:32:58.945Z,14.00
2023-04-08T00:38:03.962Z,14.70
2023-04-08T00:43:08.099Z,14.20
2023-04-08T00:48:12.541Z,13.90
2023-04-08T00:53:18.921Z,13.80
2023-04-08T00:58:23.463Z,14.70
2023-04-08T01:03:48.019Z,14.00
2023-04-08T01:08:53.342Z,11.30
2023-04-08T01:13:58.879Z,12.70
2023-04-08T01:19:03.239Z,10.90
2023-04-08T01:24:30.804Z,13.70
2023-04-08T01:29:35.991Z,9.80
2023-04-08T01:34:44.340Z,12.50
2023-04-08T01:39:50.316Z,11.10
2023-04-08T01:44:58.108Z,9.10
2023-04-08T01:50:03.666Z,10.40
2023-04-08T01:55:08.660Z,13.50
2023-04-08T02:00:15.027Z,10.20
2023-04-08T02:05:26.386Z,11.90
2023-04-08T02:10:30.552Z,8.60
2023-04-08T02:15:37.586Z,9.80
2023-04-08T02:20:48.787Z,8.80
2023-04-08T02:25:56.346Z,10.10
2023-04-08T02:31:06.233Z,9.30
2023-04-08T02:36:12.608Z,10.80
2023-04-08T02:41:18.178Z,10.40
2023-04-08T02:46:22.501Z,8.40
2023-04-08T02:51:28.268Z,9.60
2023-04-08T02:56:32.156Z,8.70
2023-04-08T03:01:36.320Z,7.70
2023-04-08T03:06:40.496Z,9.50
2023-04-08T03:11:45.446Z,8.90
2023-04-08T03:16:49.731Z,8.40
2023-04-08T03:21:53.828Z,7.30
2023-04-08T03:26:58.464Z,6.80
2023-04-08T03:32:02.533Z,7.50
2023-04-08T03:37:06.928Z,6.80
2023-04-08T03:42:11.065Z,6.70
2023-04-08T03:47:15.319Z,6.90
2023-04-08T03:52:19.456Z,6.20
2023-04-08T03:57:23.572Z,6.10
2023-04-08T04:02:27.816Z,6.80
2023-04-08T04:07:32.251Z,7.00
2023-04-08T04:12:36.394Z,7.40
2023-04-08T04:17:40.862Z,6.90
2023-04-08T04:22:45.477Z,6.20
2023-04-08T04:27:49.623Z,5.40
2023-04-08T04:32:54.198Z,5.40
2023-04-08T04:37:58.189Z,5.70
2023-04-08T04:43:02.319Z,6.20
2023-04-08T04:48:06.871Z,6.70
2023-04-08T04:53:11.097Z,5.00
2023-04-08T04:58:15.948Z,5.20
2023-04-08T05:03:19.907Z,5.70
2023-04-08T05:08:24.944Z,5.60
2023-04-08T05:13:30.617Z,8.20
2023-04-08T05:18:34.847Z,4.90
2023-04-08T05:23:38.900Z,5.30
2023-04-08T05:28:42.921Z,6.80
2023-04-08T05:33:47.523Z,5.70
2023-04-08T05:38:52.133Z,5.30
2023-04-08T05:43:56.764Z,5.20
2023-04-08T05:49:00.913Z,4.80
2023-04-08T05:54:05.242Z,6.20
2023-04-08T05:59:09.065Z,6.30
2023-04-08T06:04:13.165Z,6.10
2023-04-08T06:09:17.245Z,5.20
2023-04-08T06:14:21.360Z,4.60
2023-04-08T06:19:25.720Z,5.40
2023-04-08T06:24:30.549Z,5.40
2023-04-08T06:29:34.379Z,5.50
2023-04-08T06:34:38.945Z,5.30
2023-04-08T06:39:42.943Z,4.80
2023-04-08T06:44:47.307Z,6.20
2023-04-08T06:49:51.488Z,6.60
2023-04-08T06:54:55.572Z,13.50
2023-04-08T07:00:01.029Z,6.50
2023-04-08T07:05:05.593Z,5.70
2023-04-08T07:10:11.107Z,9.80
2023-04-08T07:15:17.650Z,80.50
2023-04-08T07:20:23.395Z,82.00
2023-04-08T07:25:27.649Z,109.50
2023-04-08T07:30:32.098Z,89.20
2023-04-08T07:35:36.556Z,78.10
2023-04-08T07:40:40.980Z,82.20
2023-04-08T07:45:45.237Z,72.90
2023-04-08T07:51:08.030Z,79.00
2023-04-08T07:56:15.729Z,67.80
2023-04-08T08:01:22.629Z,62.60
2023-04-08T08:06:27.993Z,61.10
2023-04-08T08:11:35.690Z,60.10
2023-04-08T08:16:43.056Z,59.60
2023-04-08T08:21:47.395Z,53.50
2023-04-08T08:26:53.563Z,53.40
2023-04-08T08:32:02.548Z,57.20
2023-04-08T08:37:09.022Z,59.60
2023-04-08T08:42:28.533Z,53.00
2023-04-08T08:47:33.687Z,50.90
2023-04-08T08:52:37.579Z,47.90
2023-04-08T08:57:43.342Z,51.20
2023-04-08T09:02:48.713Z,46.10
2023-04-08T09:07:52.954Z,42.20
2023-04-08T09:12:58.117Z,37.10
2023-04-08T09:18:02.756Z,41.60
2023-04-08T09:23:06.591Z,41.70
2023-04-08T09:28:22.905Z,49.10
2023-04-08T09:33:32.972Z,38.90
2023-04-08T09:38:36.998Z,39.50
2023-04-08T09:44:09.926Z,37.10
2023-04-08T09:49:26.408Z,41.80
2023-04-08T09:54:53.280Z,37.00
2023-04-08T10:00:05.898Z,37.00
2023-04-08T10:05:19.347Z,35.10
2023-04-08T10:10:27.984Z,43.60
2023-04-08T10:15:33.575Z,35.30
2023-04-08T10:20:37.994Z,38.00
2023-04-08T10:25:46.518Z,32.60
2023-04-08T10:30:58.042Z,34.90
2023-04-08T10:36:03.248Z,32.00
2023-04-08T10:41:07.332Z,30.30
2023-04-08T10:46:12.394Z,31.80
2023-04-08T10:51:17.142Z,28.40
2023-04-08T10:56:21.171Z,29.50
2023-04-08T11:01:26.252Z,34.40
2023-04-08T11:06:30.997Z,31.90
2023-04-08T11:11:35.203Z,32.70
2023-04-08T11:16:40.174Z,28.30
2023-04-08T11:21:44.104Z,26.70
2023-04-08T11:26:48.341Z,29.20
2023-04-08T11:31:52.776Z,29.00
2023-04-08T11:36:58.948Z,27.60
2023-04-08T11:42:03.197Z,25.80
2023-04-08T11:47:07.746Z,28.40
2023-04-08T11:52:11.865Z,21.80
2023-04-08T11:57:28.388Z,25.40
2023-04-08T12:02:32.592Z,23.60
2023-04-08T12:07:37.263Z,23.30
2023-04-08T12:12:41.942Z,23.30
2023-04-08T12:17:46.220Z,21.70
2023-04-08T12:22:50.302Z,23.10
2023-04-08T12:27:54.515Z,22.50
2023-04-08T12:32:58.802Z,19.10
2023-04-08T12:38:03.113Z,23.70
2023-04-08T12:43:07.351Z,20.50
2023-04-08T12:48:11.687Z,19.50
2023-04-08T12:53:16.022Z,20.70
2023-04-08T12:58:21.404Z,19.30
2023-04-08T13:03:28.730Z,20.90
2023-04-08T13:08:32.940Z,20.30
2023-04-08T13:13:37.341Z,19.90
2023-04-08T13:18:41.875Z,19.20
2023-04-08T13:23:47.598Z,19.60
2023-04-08T13:28:57.092Z,19.20
2023-04-08T13:34:02.211Z,19.40
2023-04-08T13:39:06.235Z,19.10
2023-04-08T13:44:11.390Z,19.80
2023-04-08T13:49:16.804Z,17.80
2023-04-08T13:54:20.684Z,17.30
2023-04-08T13:59:25.128Z,16.30
2023-04-08T14:04:29.103Z,15.60
2023-04-08T14:09:34.104Z,16.50
2023-04-08T14:14:38.158Z,17.10
2023-04-08T14:19:42.605Z,16.50
2023-04-08T14:24:46.658Z,15.50
2023-04-08T14:29:50.755Z,16.60
2023-04-08T14:34:55.100Z,20.90
2023-04-08T14:39:59.164Z,15.60
2023-04-08T14:45:04.008Z,15.80
2023-04-08T14:50:08.950Z,17.00
2023-04-08T14:55:13.171Z,16.30
2023-04-08T15:00:17.627Z,15.50
2023-04-08T15:05:21.618Z,14.80
2023-04-08T15:10:26.332Z,14.80
2023-04-08T15:15:30.526Z,13.80
2023-04-08T15:20:34.774Z,13.20
2023-04-08T15:25:39.305Z,13.90
2023-04-08T15:30:44.336Z,13.50
2023-04-08T15:35:49.026Z,14.50
2023-04-08T15:40:53.243Z,14.00
2023-04-08T15:45:57.281Z,12.70
2023-04-08T15:51:13.896Z,13.20
2023-04-08T15:56:19.139Z,13.30
2023-04-08T16:01:23.546Z,14.80
2023-04-08T16:06:28.269Z,14.00
2023-04-08T16:11:34.721Z,12.90
2023-04-08T16:16:39.059Z,12.10
2023-04-08T16:21:43.111Z,12.40
2023-04-08T16:26:47.240Z,12.90
2023-04-08T16:31:53.325Z,11.60
2023-04-08T16:36:59.098Z,12.80
2023-04-08T16:42:03.525Z,11.20
2023-04-08T16:47:11.668Z,10.90
2023-04-08T16:52:16.308Z,12.50
2023-04-08T16:57:20.670Z,11.20
2023-04-08T17:02:25.378Z,12.50
2023-04-08T17:07:29.934Z,12.20
2023-04-08T17:12:34.291Z,11.40
2023-04-08T17:17:39.154Z,12.10
2023-04-08T17:22:44.081Z,12.30
2023-04-08T17:27:48.330Z,11.70
2023-04-08T17:32:53.412Z,11.20
2023-04-08T17:37:58.027Z,11.10
2023-04-08T17:43:04.436Z,11.40
2023-04-08T17:48:10.246Z,10.90
2023-04-08T17:53:14.538Z,12.30
2023-04-08T17:58:18.859Z,10.90
2023-04-08T18:03:27.753Z,10.60
2023-04-08T18:08:31.826Z,11.40
2023-04-08T18:13:36.014Z,11.70
2023-04-08T18:18:40.430Z,9.70
2023-04-08T18:23:49.640Z,10.30
2023-04-08T18:28:54.427Z,10.90
2023-04-08T18:34:01.323Z,10.80
2023-04-08T18:39:08.331Z,10.90
2023-04-08T18:44:13.994Z,11.30
2023-04-08T18:49:19.255Z,10.80
2023-04-08T18:54:24.815Z,10.50
2023-04-08T18:59:29.466Z,10.40
2023-04-08T19:04:34.412Z,10.90
2023-04-08T19:09:39.650Z,10.30
2023-04-08T19:14:43.932Z,10.10
2023-04-08T19:19:49.162Z,10.00
2023-04-08T19:24:55.041Z,10.10
2023-04-08T19:30:04.452Z,10.80
2023-04-08T19:35:13.855Z,10.50
2023-04-08T19:40:19.940Z,9.10
2023-04-08T19:45:24.290Z,10.10
2023-04-08T19:50:28.719Z,8.60
2023-04-08T19:55:37.877Z,10.00
2023-04-08T20:00:41.889Z,9.20
2023-04-08T20:05:47.299Z,9.30
2023-04-08T20:10:51.600Z,10.70
2023-04-08T20:15:55.854Z,9.70
2023-04-08T20:21:00.896Z,9.40
2023-04-08T20:26:05.337Z,9.30
2023-04-08T20:31:10.920Z,8.60
2023-04-08T20:36:15.038Z,9.00
2023-04-08T20:41:20.711Z,10.90
2023-04-08T20:46:24.919Z,9.00
2023-04-08T20:51:29.004Z,9.20
2023-04-08T20:56:33.105Z,9.00
2023-04-08T21:01:37.166Z,8.40
2023-04-08T21:06:42.512Z,8.80
2023-04-08T21:11:46.656Z,8.70
2023-04-08T21:16:50.848Z,8.20
2023-04-08T21:21:54.913Z,8.60
2023-04-08T21:26:59.356Z,8.10
2023-04-08T21:32:03.300Z,8.60
2023-04-08T21:37:09.067Z,8.50
2023-04-08T21:42:13.181Z,8.30
2023-04-08T21:47:18.060Z,8.70
2023-04-08T21:52:22.179Z,8.70
2023-04-08T21:57:26.433Z,8.80
2023-04-08T22:02:30.596Z,8.00
2023-04-08T22:07:34.893Z,8.20
2023-04-08T22:12:39.013Z,7.80
2023-04-08T22:17:43.389Z,8.30
2023-04-08T22:22:47.382Z,8.20
2023-04-08T22:27:51.835Z,8.20
2023-04-08T22:32:55.794Z,8.60
2023-04-08T22:38:00.161Z,8.30
2023-04-08T22:43:04.265Z,8.70
2023-04-08T22:48:08.164Z,8.90
2023-04-08T22:53:13.329Z,8.40
2023-04-08T22:58:17.467Z,8.20
2023-04-08T23:03:21.843Z,9.70
2023-04-08T23:08:25.933Z,8.10
2023-04-08T23:13:30.273Z,8.60
2023-04-08T23:18:34.527Z,8.20
2023-04-08T23:23:38.543Z,8.80
2023-04-08T23:28:42.472Z,8.30
2023-04-08T23:33:46.516Z,8.90
2023-04-08T23:38:51.515Z,9.20
2023-04-08T23:43:55.905Z,8.50
2023-04-08T23:48:59.736Z,8.90
2023-04-08T23:54:03.973Z,9.80
2023-04-08T23:59:08.105Z,8.70
